sensor_id;sensor_type;location;lat;lon;timestamp;temperature;humidity
25438;DHT22;13364;49.084;9.978;2023-05-07T00:02:21;13.60;79.80
25438;DHT22;13364;49.084;9.978;2023-05-07T00:04:48;13.50;79.90
25438;DHT22;13364;49.084;9.978;2023-05-07T00:07:15;13.40;80.10
25438;DHT22;13364;49.084;9.978;2023-05-07T00:09:43;13.40;80.30
25438;DHT22;13364;49.084;9.978;2023-05-07T00:12:10;13.30;80.50
25438;DHT22;13364;49.084;9.978;2023-05-07T00:14:37;13.20;80.90
25438;DHT22;13364;49.084;9.978;2023-05-07T00:17:04;13.20;80.90
25438;DHT22;13364;49.084;9.978;2023-05-07T00:19:31;13.10;81.20
25438;DHT22;13364;49.084;9.978;2023-05-07T00:22:35;13.10;81.40
25438;DHT22;13364;49.084;9.978;2023-05-07T00:25:02;13.10;81.50
25438;DHT22;13364;49.084;9.978;2023-05-07T00:27:29;13.10;81.50
25438;DHT22;13364;49.084;9.978;2023-05-07T00:29:56;13.10;81.40
25438;DHT22;13364;49.084;9.978;2023-05-07T00:32:23;13.10;81.10
25438;DHT22;13364;49.084;9.978;2023-05-07T00:34:50;13.10;81.30
25438;DHT22;13364;49.084;9.978;2023-05-07T00:37:17;13.10;81.80
25438;DHT22;13364;49.084;9.978;2023-05-07T00:39:45;13.00;82.30
25438;DHT22;13364;49.084;9.978;2023-05-07T00:42:11;12.90;82.70
25438;DHT22;13364;49.084;9.978;2023-05-07T00:44:39;12.90;82.70
25438;DHT22;13364;49.084;9.978;2023-05-07T00:47:06;13.00;82.50
25438;DHT22;13364;49.084;9.978;2023-05-07T00:49:41;13.00;82.40
25438;DHT22;13364;49.084;9.978;2023-05-07T00:52:14;13.00;82.40
25438;DHT22;13364;49.084;9.978;2023-05-07T00:54:42;13.00;82.70
25438;DHT22;13364;49.084;9.978;2023-05-07T00:57:10;13.00;82.50
25438;DHT22;13364;49.084;9.978;2023-05-07T00:59:40;13.00;82.40
25438;DHT22;13364;49.084;9.978;2023-05-07T01:02:08;12.90;82.50
25438;DHT22;13364;49.084;9.978;2023-05-07T01:04:35;12.90;82.30
25438;DHT22;13364;49.084;9.978;2023-05-07T01:07:05;12.90;82.10
25438;DHT22;13364;49.084;9.978;2023-05-07T01:09:32;12.90;82.00
25438;DHT22;13364;49.084;9.978;2023-05-07T01:12:03;12.90;82.00
25438;DHT22;13364;49.084;9.978;2023-05-07T01:14:31;12.90;81.90
25438;DHT22;13364;49.084;9.978;2023-05-07T01:16:59;12.90;82.10
25438;DHT22;13364;49.084;9.978;2023-05-07T01:19:28;12.90;82.20
25438;DHT22;13364;49.084;9.978;2023-05-07T01:22:03;12.90;82.20
25438;DHT22;13364;49.084;9.978;2023-05-07T01:24:36;12.80;82.30
25438;DHT22;13364;49.084;9.978;2023-05-07T01:27:07;12.90;82.40
25438;DHT22;13364;49.084;9.978;2023-05-07T01:29:35;12.90;82.30
25438;DHT22;13364;49.084;9.978;2023-05-07T01:32:03;12.90;81.90
25438;DHT22;13364;49.084;9.978;2023-05-07T01:34:34;12.90;82.10
25438;DHT22;13364;49.084;9.978;2023-05-07T01:37:03;12.90;82.30
25438;DHT22;13364;49.084;9.978;2023-05-07T01:39:31;12.90;82.30
25438;DHT22;13364;49.084;9.978;2023-05-07T01:41:59;12.90;82.60
25438;DHT22;13364;49.084;9.978;2023-05-07T01:44:27;12.80;82.50
25438;DHT22;13364;49.084;9.978;2023-05-07T01:46:54;12.80;82.50
25438;DHT22;13364;49.084;9.978;2023-05-07T01:49:22;12.80;82.50
25438;DHT22;13364;49.084;9.978;2023-05-07T01:52:15;12.80;82.70
25438;DHT22;13364;49.084;9.978;2023-05-07T01:54:42;12.80;82.90
25438;DHT22;13364;49.084;9.978;2023-05-07T01:57:09;12.80;82.80
25438;DHT22;13364;49.084;9.978;2023-05-07T01:59:37;12.90;83.00
25438;DHT22;13364;49.084;9.978;2023-05-07T02:02:04;12.90;82.80
25438;DHT22;13364;49.084;9.978;2023-05-07T02:04:32;12.90;82.70
25438;DHT22;13364;49.084;9.978;2023-05-07T02:06:59;12.90;82.70
25438;DHT22;13364;49.084;9.978;2023-05-07T02:09:26;12.80;82.60
25438;DHT22;13364;49.084;9.978;2023-05-07T02:11:54;12.90;82.70
25438;DHT22;13364;49.084;9.978;2023-05-07T02:14:22;12.90;82.50
25438;DHT22;13364;49.084;9.978;2023-05-07T02:16:49;12.80;82.50
25438;DHT22;13364;49.084;9.978;2023-05-07T02:19:16;12.80;82.60
25438;DHT22;13364;49.084;9.978;2023-05-07T02:21:44;12.80;82.70
25438;DHT22;13364;49.084;9.978;2023-05-07T02:24:11;12.80;82.50
25438;DHT22;13364;49.084;9.978;2023-05-07T02:26:40;12.80;82.50
25438;DHT22;13364;49.084;9.978;2023-05-07T02:29:07;12.80;82.40
25438;DHT22;13364;49.084;9.978;2023-05-07T02:31:34;12.80;82.50
25438;DHT22;13364;49.084;9.978;2023-05-07T02:34:01;12.80;82.50
25438;DHT22;13364;49.084;9.978;2023-05-07T02:36:28;12.70;82.90
25438;DHT22;13364;49.084;9.978;2023-05-07T02:39:09;12.60;83.50
25438;DHT22;13364;49.084;9.978;2023-05-07T02:41:36;12.50;84.30
25438;DHT22;13364;49.084;9.978;2023-05-07T02:44:03;12.40;85.00
25438;DHT22;13364;49.084;9.978;2023-05-07T02:46:31;12.30;85.20
25438;DHT22;13364;49.084;9.978;2023-05-07T02:49:03;12.40;85.10
25438;DHT22;13364;49.084;9.978;2023-05-07T02:51:30;12.40;85.10
25438;DHT22;13364;49.084;9.978;2023-05-07T02:54:00;12.40;85.20
25438;DHT22;13364;49.084;9.978;2023-05-07T02:56:28;12.40;85.10
25438;DHT22;13364;49.084;9.978;2023-05-07T02:58:55;12.40;85.00
25438;DHT22;13364;49.084;9.978;2023-05-07T03:01:27;12.40;84.80
25438;DHT22;13364;49.084;9.978;2023-05-07T03:04:00;12.40;84.50
25438;DHT22;13364;49.084;9.978;2023-05-07T03:06:27;12.40;84.20
25438;DHT22;13364;49.084;9.978;2023-05-07T03:08:54;12.50;84.00
25438;DHT22;13364;49.084;9.978;2023-05-07T03:11:21;12.40;84.20
25438;DHT22;13364;49.084;9.978;2023-05-07T03:13:48;12.40;84.50
25438;DHT22;13364;49.084;9.978;2023-05-07T03:16:18;12.40;84.60
25438;DHT22;13364;49.084;9.978;2023-05-07T03:18:45;12.30;84.80
25438;DHT22;13364;49.084;9.978;2023-05-07T03:21:12;12.30;84.90
25438;DHT22;13364;49.084;9.978;2023-05-07T03:23:39;12.20;85.00
25438;DHT22;13364;49.084;9.978;2023-05-07T03:26:07;12.20;85.10
25438;DHT22;13364;49.084;9.978;2023-05-07T03:28:34;12.20;85.00
25438;DHT22;13364;49.084;9.978;2023-05-07T03:31:04;12.20;85.10
25438;DHT22;13364;49.084;9.978;2023-05-07T03:33:35;12.20;85.20
25438;DHT22;13364;49.084;9.978;2023-05-07T03:36:05;12.10;85.50
25438;DHT22;13364;49.084;9.978;2023-05-07T03:38:32;12.10;85.50
25438;DHT22;13364;49.084;9.978;2023-05-07T03:41:00;12.10;85.50
25438;DHT22;13364;49.084;9.978;2023-05-07T03:43:27;12.10;85.60
25438;DHT22;13364;49.084;9.978;2023-05-07T03:46:03;12.00;85.70
25438;DHT22;13364;49.084;9.978;2023-05-07T03:48:30;12.00;85.70
25438;DHT22;13364;49.084;9.978;2023-05-07T03:50:58;12.00;85.90
25438;DHT22;13364;49.084;9.978;2023-05-07T03:53:30;12.00;85.80
25438;DHT22;13364;49.084;9.978;2023-05-07T03:55:57;12.00;85.70
25438;DHT22;13364;49.084;9.978;2023-05-07T03:58:24;12.00;86.00
25438;DHT22;13364;49.084;9.978;2023-05-07T04:00:54;12.00;86.00
25438;DHT22;13364;49.084;9.978;2023-05-07T04:03:26;11.90;86.40
25438;DHT22;13364;49.084;9.978;2023-05-07T04:05:56;11.90;86.50
25438;DHT22;13364;49.084;9.978;2023-05-07T04:08:23;11.90;86.60
25438;DHT22;13364;49.084;9.978;2023-05-07T04:10:57;11.90;86.30
25438;DHT22;13364;49.084;9.978;2023-05-07T04:13:27;11.90;86.70
25438;DHT22;13364;49.084;9.978;2023-05-07T04:15:57;11.90;86.80
25438;DHT22;13364;49.084;9.978;2023-05-07T04:18:25;11.90;86.80
25438;DHT22;13364;49.084;9.978;2023-05-07T04:20:52;12.00;86.80
25438;DHT22;13364;49.084;9.978;2023-05-07T04:23:20;12.00;86.90
25438;DHT22;13364;49.084;9.978;2023-05-07T04:25:47;12.00;86.70
25438;DHT22;13364;49.084;9.978;2023-05-07T04:28:29;12.00;86.90
25438;DHT22;13364;49.084;9.978;2023-05-07T04:30:57;12.00;86.80
25438;DHT22;13364;49.084;9.978;2023-05-07T04:33:25;12.00;86.60
25438;DHT22;13364;49.084;9.978;2023-05-07T04:35:52;12.00;86.60
25438;DHT22;13364;49.084;9.978;2023-05-07T04:38:19;12.00;86.30
25438;DHT22;13364;49.084;9.978;2023-05-07T04:40:49;12.00;86.30
25438;DHT22;13364;49.084;9.978;2023-05-07T04:43:20;12.00;86.40
25438;DHT22;13364;49.084;9.978;2023-05-07T04:45:50;12.00;86.50
25438;DHT22;13364;49.084;9.978;2023-05-07T04:48:20;12.00;86.50
25438;DHT22;13364;49.084;9.978;2023-05-07T04:50:49;12.00;86.60
25438;DHT22;13364;49.084;9.978;2023-05-07T04:53:18;12.00;86.60
25438;DHT22;13364;49.084;9.978;2023-05-07T04:55:45;12.00;86.50
25438;DHT22;13364;49.084;9.978;2023-05-07T04:58:13;12.00;86.60
25438;DHT22;13364;49.084;9.978;2023-05-07T05:00:41;12.10;86.70
25438;DHT22;13364;49.084;9.978;2023-05-07T05:03:09;12.10;86.60
25438;DHT22;13364;49.084;9.978;2023-05-07T05:05:38;12.10;86.30
25438;DHT22;13364;49.084;9.978;2023-05-07T05:08:25;12.20;86.30
25438;DHT22;13364;49.084;9.978;2023-05-07T05:10:52;12.20;86.00
25438;DHT22;13364;49.084;9.978;2023-05-07T05:13:19;12.20;86.00
25438;DHT22;13364;49.084;9.978;2023-05-07T05:15:47;12.30;86.00
25438;DHT22;13364;49.084;9.978;2023-05-07T05:18:14;12.30;86.20
25438;DHT22;13364;49.084;9.978;2023-05-07T05:20:41;12.30;86.40
25438;DHT22;13364;49.084;9.978;2023-05-07T05:23:08;12.30;86.40
25438;DHT22;13364;49.084;9.978;2023-05-07T05:25:36;12.30;86.30
25438;DHT22;13364;49.084;9.978;2023-05-07T05:28:07;12.40;86.30
25438;DHT22;13364;49.084;9.978;2023-05-07T05:30:34;12.50;86.50
25438;DHT22;13364;49.084;9.978;2023-05-07T05:33:02;12.60;86.60
25438;DHT22;13364;49.084;9.978;2023-05-07T05:35:29;12.60;86.50
25438;DHT22;13364;49.084;9.978;2023-05-07T05:37:59;12.70;86.60
25438;DHT22;13364;49.084;9.978;2023-05-07T05:40:26;12.80;86.40
25438;DHT22;13364;49.084;9.978;2023-05-07T05:42:53;12.80;86.40
25438;DHT22;13364;49.084;9.978;2023-05-07T05:45:21;12.90;86.40
25438;DHT22;13364;49.084;9.978;2023-05-07T05:47:49;13.00;86.70
25438;DHT22;13364;49.084;9.978;2023-05-07T05:50:17;13.10;86.90
25438;DHT22;13364;49.084;9.978;2023-05-07T05:52:44;13.20;86.90
25438;DHT22;13364;49.084;9.978;2023-05-07T05:55:11;13.20;87.00
25438;DHT22;13364;49.084;9.978;2023-05-07T05:57:39;13.30;86.50
25438;DHT22;13364;49.084;9.978;2023-05-07T06:00:08;13.30;86.60
25438;DHT22;13364;49.084;9.978;2023-05-07T06:02:44;13.40;86.20
25438;DHT22;13364;49.084;9.978;2023-05-07T06:05:16;13.40;86.10
25438;DHT22;13364;49.084;9.978;2023-05-07T06:07:44;13.50;86.60
25438;DHT22;13364;49.084;9.978;2023-05-07T06:10:11;13.50;86.80
25438;DHT22;13364;49.084;9.978;2023-05-07T06:12:40;13.60;86.50
25438;DHT22;13364;49.084;9.978;2023-05-07T06:15:12;13.70;85.80
25438;DHT22;13364;49.084;9.978;2023-05-07T06:17:40;13.80;85.50
25438;DHT22;13364;49.084;9.978;2023-05-07T06:20:09;13.80;84.90
25438;DHT22;13364;49.084;9.978;2023-05-07T06:22:38;13.90;84.70
25438;DHT22;13364;49.084;9.978;2023-05-07T06:25:05;14.00;84.60
25438;DHT22;13364;49.084;9.978;2023-05-07T06:27:33;14.00;84.80
25438;DHT22;13364;49.084;9.978;2023-05-07T06:30:29;14.00;85.00
25438;DHT22;13364;49.084;9.978;2023-05-07T06:32:56;14.10;85.00
25438;DHT22;13364;49.084;9.978;2023-05-07T06:35:25;14.20;85.10
25438;DHT22;13364;49.084;9.978;2023-05-07T06:37:52;14.30;84.90
25438;DHT22;13364;49.084;9.978;2023-05-07T06:40:23;14.40;84.60
25438;DHT22;13364;49.084;9.978;2023-05-07T06:42:50;14.50;84.20
25438;DHT22;13364;49.084;9.978;2023-05-07T06:45:33;14.60;84.00
25438;DHT22;13364;49.084;9.978;2023-05-07T06:48:01;14.70;83.70
25438;DHT22;13364;49.084;9.978;2023-05-07T06:50:31;14.70;83.60
25438;DHT22;13364;49.084;9.978;2023-05-07T06:52:59;14.90;83.40
25438;DHT22;13364;49.084;9.978;2023-05-07T06:55:27;15.00;83.30
25438;DHT22;13364;49.084;9.978;2023-05-07T06:57:54;15.00;82.80
25438;DHT22;13364;49.084;9.978;2023-05-07T07:00:23;15.00;83.00
25438;DHT22;13364;49.084;9.978;2023-05-07T07:02:53;15.00;84.10
25438;DHT22;13364;49.084;9.978;2023-05-07T07:05:23;15.10;84.70
25438;DHT22;13364;49.084;9.978;2023-05-07T07:07:50;15.20;84.90
25438;DHT22;13364;49.084;9.978;2023-05-07T07:10:26;15.40;84.60
25438;DHT22;13364;49.084;9.978;2023-05-07T07:12:54;15.50;84.20
25438;DHT22;13364;49.084;9.978;2023-05-07T07:15:21;15.70;83.20
25438;DHT22;13364;49.084;9.978;2023-05-07T07:17:49;15.90;82.20
25438;DHT22;13364;49.084;9.978;2023-05-07T07:20:16;16.00;82.10
25438;DHT22;13364;49.084;9.978;2023-05-07T07:22:44;16.20;79.90
25438;DHT22;13364;49.084;9.978;2023-05-07T07:25:12;16.20;79.80
25438;DHT22;13364;49.084;9.978;2023-05-07T07:27:39;16.40;79.40
25438;DHT22;13364;49.084;9.978;2023-05-07T07:30:07;16.50;79.50
25438;DHT22;13364;49.084;9.978;2023-05-07T07:32:38;16.60;79.40
25438;DHT22;13364;49.084;9.978;2023-05-07T07:35:05;16.80;79.40
25438;DHT22;13364;49.084;9.978;2023-05-07T07:37:33;16.90;79.10
25438;DHT22;13364;49.084;9.978;2023-05-07T07:40:00;17.10;79.70
25438;DHT22;13364;49.084;9.978;2023-05-07T07:42:27;17.30;77.70
25438;DHT22;13364;49.084;9.978;2023-05-07T07:44:56;17.40;76.40
25438;DHT22;13364;49.084;9.978;2023-05-07T07:47:27;17.60;76.10
25438;DHT22;13364;49.084;9.978;2023-05-07T07:49:54;17.60;75.00
25438;DHT22;13364;49.084;9.978;2023-05-07T07:52:22;17.70;75.00
25438;DHT22;13364;49.084;9.978;2023-05-07T07:54:49;17.80;75.20
25438;DHT22;13364;49.084;9.978;2023-05-07T07:57:16;18.00;74.70
25438;DHT22;13364;49.084;9.978;2023-05-07T07:59:43;18.10;74.20
25438;DHT22;13364;49.084;9.978;2023-05-07T08:02:12;18.20;74.40
25438;DHT22;13364;49.084;9.978;2023-05-07T08:04:39;18.40;73.30
25438;DHT22;13364;49.084;9.978;2023-05-07T08:07:08;18.50;72.40
25438;DHT22;13364;49.084;9.978;2023-05-07T08:09:40;18.70;73.00
25438;DHT22;13364;49.084;9.978;2023-05-07T08:12:08;18.90;73.10
25438;DHT22;13364;49.084;9.978;2023-05-07T08:14:37;19.10;71.40
25438;DHT22;13364;49.084;9.978;2023-05-07T08:17:06;19.20;71.20
25438;DHT22;13364;49.084;9.978;2023-05-07T08:19:33;19.40;71.20
25438;DHT22;13364;49.084;9.978;2023-05-07T08:22:13;19.60;70.40
25438;DHT22;13364;49.084;9.978;2023-05-07T08:24:50;19.80;71.30
25438;DHT22;13364;49.084;9.978;2023-05-07T08:27:26;20.00;69.70
25438;DHT22;13364;49.084;9.978;2023-05-07T08:30:07;20.30;68.90
25438;DHT22;13364;49.084;9.978;2023-05-07T08:32:35;20.50;68.10
25438;DHT22;13364;49.084;9.978;2023-05-07T08:35:02;20.80;66.50
25438;DHT22;13364;49.084;9.978;2023-05-07T08:37:29;20.90;66.10
25438;DHT22;13364;49.084;9.978;2023-05-07T08:39:59;21.20;65.80
25438;DHT22;13364;49.084;9.978;2023-05-07T08:42:34;21.50;64.60
25438;DHT22;13364;49.084;9.978;2023-05-07T08:45:09;21.70;63.10
25438;DHT22;13364;49.084;9.978;2023-05-07T08:47:43;22.00;64.00
25438;DHT22;13364;49.084;9.978;2023-05-07T08:50:20;22.30;62.20
25438;DHT22;13364;49.084;9.978;2023-05-07T08:52:49;22.50;60.10
25438;DHT22;13364;49.084;9.978;2023-05-07T08:55:20;22.80;60.50
25438;DHT22;13364;49.084;9.978;2023-05-07T08:57:52;23.00;59.30
25438;DHT22;13364;49.084;9.978;2023-05-07T09:00:20;23.20;57.60
25438;DHT22;13364;49.084;9.978;2023-05-07T09:02:50;23.30;57.10
25438;DHT22;13364;49.084;9.978;2023-05-07T09:05:21;23.40;55.90
25438;DHT22;13364;49.084;9.978;2023-05-07T09:07:51;23.60;54.60
25438;DHT22;13364;49.084;9.978;2023-05-07T09:10:30;23.70;53.50
25438;DHT22;13364;49.084;9.978;2023-05-07T09:12:59;23.80;55.10
25438;DHT22;13364;49.084;9.978;2023-05-07T09:15:30;24.00;54.90
25438;DHT22;13364;49.084;9.978;2023-05-07T09:18:01;24.20;49.30
25438;DHT22;13364;49.084;9.978;2023-05-07T09:20:30;24.20;51.10
25438;DHT22;13364;49.084;9.978;2023-05-07T09:22:59;24.30;51.80
25438;DHT22;13364;49.084;9.978;2023-05-07T09:25:47;24.30;51.00
25438;DHT22;13364;49.084;9.978;2023-05-07T09:28:25;24.50;51.30
25438;DHT22;13364;49.084;9.978;2023-05-07T09:31:00;24.60;51.20
25438;DHT22;13364;49.084;9.978;2023-05-07T09:33:37;24.90;50.80
25438;DHT22;13364;49.084;9.978;2023-05-07T09:36:23;25.00;50.20
25438;DHT22;13364;49.084;9.978;2023-05-07T09:38:59;25.20;50.20
25438;DHT22;13364;49.084;9.978;2023-05-07T09:46:07;25.60;47.40
25438;DHT22;13364;49.084;9.978;2023-05-07T09:48:37;25.70;47.10
25438;DHT22;13364;49.084;9.978;2023-05-07T09:51:24;25.70;46.50
25438;DHT22;13364;49.084;9.978;2023-05-07T09:53:56;25.80;47.10
25438;DHT22;13364;49.084;9.978;2023-05-07T09:56:24;25.80;48.30
25438;DHT22;13364;49.084;9.978;2023-05-07T09:58:54;25.90;47.90
25438;DHT22;13364;49.084;9.978;2023-05-07T10:01:31;26.00;47.80
25438;DHT22;13364;49.084;9.978;2023-05-07T10:04:02;26.10;47.90
25438;DHT22;13364;49.084;9.978;2023-05-07T10:06:32;26.20;46.00
25438;DHT22;13364;49.084;9.978;2023-05-07T10:08:59;26.30;47.40
25438;DHT22;13364;49.084;9.978;2023-05-07T10:11:28;26.30;46.90
25438;DHT22;13364;49.084;9.978;2023-05-07T10:13:55;26.30;45.40
25438;DHT22;13364;49.084;9.978;2023-05-07T10:16:24;26.30;47.50
25438;DHT22;13364;49.084;9.978;2023-05-07T10:18:53;26.30;47.00
25438;DHT22;13364;49.084;9.978;2023-05-07T10:21:23;26.50;47.10
25438;DHT22;13364;49.084;9.978;2023-05-07T10:24:03;26.50;45.90
25438;DHT22;13364;49.084;9.978;2023-05-07T10:26:35;26.50;45.70
25438;DHT22;13364;49.084;9.978;2023-05-07T10:29:16;26.50;46.80
25438;DHT22;13364;49.084;9.978;2023-05-07T10:34:50;26.60;46.50
25438;DHT22;13364;49.084;9.978;2023-05-07T10:37:32;26.80;47.20
25438;DHT22;13364;49.084;9.978;2023-05-07T10:40:02;27.00;45.40
25438;DHT22;13364;49.084;9.978;2023-05-07T10:42:31;27.10;43.50
25438;DHT22;13364;49.084;9.978;2023-05-07T10:45:11;27.20;43.70
25438;DHT22;13364;49.084;9.978;2023-05-07T10:48:07;27.00;44.80
25438;DHT22;13364;49.084;9.978;2023-05-07T10:51:19;26.80;44.70
25438;DHT22;13364;49.084;9.978;2023-05-07T10:56:53;26.80;47.20
25438;DHT22;13364;49.084;9.978;2023-05-07T10:59:32;26.90;45.40
25438;DHT22;13364;49.084;9.978;2023-05-07T11:02:12;27.00;45.80
25438;DHT22;13364;49.084;9.978;2023-05-07T11:05:18;26.90;46.60
25438;DHT22;13364;49.084;9.978;2023-05-07T11:07:54;26.80;45.20
25438;DHT22;13364;49.084;9.978;2023-05-07T11:10:56;26.50;45.90
25438;DHT22;13364;49.084;9.978;2023-05-07T11:13:49;26.40;47.20
25438;DHT22;13364;49.084;9.978;2023-05-07T11:16:36;26.50;48.10
25438;DHT22;13364;49.084;9.978;2023-05-07T11:19:14;26.60;46.00
25438;DHT22;13364;49.084;9.978;2023-05-07T11:21:46;26.80;46.20
25438;DHT22;13364;49.084;9.978;2023-05-07T11:24:42;27.10;47.00
25438;DHT22;13364;49.084;9.978;2023-05-07T11:27:38;27.20;46.20
25438;DHT22;13364;49.084;9.978;2023-05-07T11:30:05;27.30;46.00
25438;DHT22;13364;49.084;9.978;2023-05-07T11:36:11;27.50;45.40
25438;DHT22;13364;49.084;9.978;2023-05-07T11:38:44;27.50;46.20
25438;DHT22;13364;49.084;9.978;2023-05-07T11:41:15;27.50;44.90
25438;DHT22;13364;49.084;9.978;2023-05-07T11:44:03;27.50;43.80
25438;DHT22;13364;49.084;9.978;2023-05-07T11:51:02;27.50;45.50
25438;DHT22;13364;49.084;9.978;2023-05-07T11:57:19;27.80;45.40
25438;DHT22;13364;49.084;9.978;2023-05-07T12:12:46;28.10;44.10
25438;DHT22;13364;49.084;9.978;2023-05-07T12:15:16;28.10;44.30
25438;DHT22;13364;49.084;9.978;2023-05-07T12:18:04;28.00;44.10
25438;DHT22;13364;49.084;9.978;2023-05-07T12:20:34;27.80;44.40
25438;DHT22;13364;49.084;9.978;2023-05-07T12:23:04;27.90;45.50
25438;DHT22;13364;49.084;9.978;2023-05-07T12:25:37;27.80;44.70
25438;DHT22;13364;49.084;9.978;2023-05-07T12:28:13;27.80;45.20
25438;DHT22;13364;49.084;9.978;2023-05-07T12:30:42;27.70;44.40
25438;DHT22;13364;49.084;9.978;2023-05-07T12:33:18;27.60;44.30
25438;DHT22;13364;49.084;9.978;2023-05-07T12:35:48;27.50;44.30
25438;DHT22;13364;49.084;9.978;2023-05-07T12:38:16;27.30;45.70
25438;DHT22;13364;49.084;9.978;2023-05-07T12:40:53;27.20;45.20
25438;DHT22;13364;49.084;9.978;2023-05-07T12:43:28;27.00;46.90
25438;DHT22;13364;49.084;9.978;2023-05-07T12:46:04;26.80;46.10
25438;DHT22;13364;49.084;9.978;2023-05-07T12:48:43;26.50;47.10
25438;DHT22;13364;49.084;9.978;2023-05-07T12:51:17;26.40;47.10
25438;DHT22;13364;49.084;9.978;2023-05-07T12:53:45;26.20;47.10
25438;DHT22;13364;49.084;9.978;2023-05-07T12:56:15;26.10;47.20
25438;DHT22;13364;49.084;9.978;2023-05-07T12:58:43;26.10;47.60
25438;DHT22;13364;49.084;9.978;2023-05-07T13:01:16;26.10;47.90
25438;DHT22;13364;49.084;9.978;2023-05-07T13:03:48;26.00;47.80
25438;DHT22;13364;49.084;9.978;2023-05-07T13:06:18;25.80;48.30
25438;DHT22;13364;49.084;9.978;2023-05-07T13:08:48;25.80;47.80
25438;DHT22;13364;49.084;9.978;2023-05-07T13:11:21;25.70;48.60
25438;DHT22;13364;49.084;9.978;2023-05-07T13:13:50;25.60;49.20
25438;DHT22;13364;49.084;9.978;2023-05-07T13:16:21;25.50;49.20
25438;DHT22;13364;49.084;9.978;2023-05-07T13:19:03;25.40;48.70
25438;DHT22;13364;49.084;9.978;2023-05-07T13:25:47;25.30;48.70
25438;DHT22;13364;49.084;9.978;2023-05-07T13:29:09;25.30;49.10
25438;DHT22;13364;49.084;9.978;2023-05-07T13:32:02;25.20;50.20
25438;DHT22;13364;49.084;9.978;2023-05-07T13:39:20;25.10;50.00
25438;DHT22;13364;49.084;9.978;2023-05-07T13:42:13;25.20;49.70
25438;DHT22;13364;49.084;9.978;2023-05-07T13:45:08;25.20;50.10
25438;DHT22;13364;49.084;9.978;2023-05-07T13:48:04;25.20;49.30
25438;DHT22;13364;49.084;9.978;2023-05-07T13:50:35;25.10;49.20
25438;DHT22;13364;49.084;9.978;2023-05-07T13:53:02;24.90;50.70
25438;DHT22;13364;49.084;9.978;2023-05-07T13:55:49;24.80;51.10
25438;DHT22;13364;49.084;9.978;2023-05-07T13:59:02;24.60;51.60
25438;DHT22;13364;49.084;9.978;2023-05-07T14:02:11;24.60;51.30
25438;DHT22;13364;49.084;9.978;2023-05-07T14:05:30;24.60;51.60
25438;DHT22;13364;49.084;9.978;2023-05-07T14:08:22;24.40;52.10
25438;DHT22;13364;49.084;9.978;2023-05-07T14:10:51;24.40;52.80
25438;DHT22;13364;49.084;9.978;2023-05-07T14:13:43;24.40;52.20
25438;DHT22;13364;49.084;9.978;2023-05-07T14:16:17;24.40;52.70
25438;DHT22;13364;49.084;9.978;2023-05-07T14:23:17;24.40;52.30
25438;DHT22;13364;49.084;9.978;2023-05-07T14:25:46;24.30;52.40
25438;DHT22;13364;49.084;9.978;2023-05-07T14:28:23;24.30;52.60
25438;DHT22;13364;49.084;9.978;2023-05-07T14:30:59;24.30;52.50
25438;DHT22;13364;49.084;9.978;2023-05-07T14:33:35;24.20;51.20
25438;DHT22;13364;49.084;9.978;2023-05-07T14:36:12;24.10;52.10
25438;DHT22;13364;49.084;9.978;2023-05-07T14:38:39;24.10;52.90
25438;DHT22;13364;49.084;9.978;2023-05-07T14:41:06;24.10;53.10
25438;DHT22;13364;49.084;9.978;2023-05-07T14:43:33;24.00;53.60
25438;DHT22;13364;49.084;9.978;2023-05-07T14:46:03;24.10;52.60
25438;DHT22;13364;49.084;9.978;2023-05-07T14:48:30;24.00;54.00
25438;DHT22;13364;49.084;9.978;2023-05-07T14:50:57;24.00;54.40
25438;DHT22;13364;49.084;9.978;2023-05-07T14:53:27;24.10;53.00
25438;DHT22;13364;49.084;9.978;2023-05-07T14:55:54;24.00;54.00
25438;DHT22;13364;49.084;9.978;2023-05-07T14:58:40;24.00;53.90
25438;DHT22;13364;49.084;9.978;2023-05-07T15:01:08;23.90;54.90
25438;DHT22;13364;49.084;9.978;2023-05-07T15:03:41;23.90;54.80
25438;DHT22;13364;49.084;9.978;2023-05-07T15:06:09;23.90;54.20
25438;DHT22;13364;49.084;9.978;2023-05-07T15:08:36;23.90;54.10
25438;DHT22;13364;49.084;9.978;2023-05-07T15:11:03;23.80;54.50
25438;DHT22;13364;49.084;9.978;2023-05-07T15:16:36;23.70;54.30
25438;DHT22;13364;49.084;9.978;2023-05-07T15:19:04;23.70;55.00
25438;DHT22;13364;49.084;9.978;2023-05-07T15:21:38;23.70;53.60
25438;DHT22;13364;49.084;9.978;2023-05-07T15:24:05;23.50;54.70
25438;DHT22;13364;49.084;9.978;2023-05-07T15:26:52;23.50;54.50
25438;DHT22;13364;49.084;9.978;2023-05-07T15:29:19;23.40;55.10
25438;DHT22;13364;49.084;9.978;2023-05-07T15:31:50;23.40;55.50
25438;DHT22;13364;49.084;9.978;2023-05-07T15:34:17;23.40;55.90
25438;DHT22;13364;49.084;9.978;2023-05-07T15:36:48;23.40;55.70
25438;DHT22;13364;49.084;9.978;2023-05-07T15:39:17;23.30;55.50
25438;DHT22;13364;49.084;9.978;2023-05-07T15:41:44;23.30;55.90
25438;DHT22;13364;49.084;9.978;2023-05-07T15:44:14;23.30;55.70
25438;DHT22;13364;49.084;9.978;2023-05-07T15:46:44;23.30;55.60
25438;DHT22;13364;49.084;9.978;2023-05-07T15:49:11;23.20;56.00
25438;DHT22;13364;49.084;9.978;2023-05-07T15:51:38;23.10;56.00
25438;DHT22;13364;49.084;9.978;2023-05-07T15:54:05;23.10;55.80
25438;DHT22;13364;49.084;9.978;2023-05-07T15:56:32;23.10;56.30
25438;DHT22;13364;49.084;9.978;2023-05-07T15:58:59;23.10;56.30
25438;DHT22;13364;49.084;9.978;2023-05-07T16:01:28;23.10;57.10
25438;DHT22;13364;49.084;9.978;2023-05-07T16:03:55;23.10;57.00
25438;DHT22;13364;49.084;9.978;2023-05-07T16:06:23;23.10;57.30
25438;DHT22;13364;49.084;9.978;2023-05-07T16:09:15;23.00;57.40
25438;DHT22;13364;49.084;9.978;2023-05-07T16:11:42;23.00;57.40
25438;DHT22;13364;49.084;9.978;2023-05-07T16:14:12;23.00;57.60
25438;DHT22;13364;49.084;9.978;2023-05-07T16:16:49;23.00;57.20
25438;DHT22;13364;49.084;9.978;2023-05-07T16:19:16;22.90;57.20
25438;DHT22;13364;49.084;9.978;2023-05-07T16:21:47;22.90;57.20
25438;DHT22;13364;49.084;9.978;2023-05-07T16:24:16;22.80;58.20
25438;DHT22;13364;49.084;9.978;2023-05-07T16:26:48;22.70;58.50
25438;DHT22;13364;49.084;9.978;2023-05-07T16:29:25;22.60;58.60
25438;DHT22;13364;49.084;9.978;2023-05-07T16:31:52;22.60;58.40
25438;DHT22;13364;49.084;9.978;2023-05-07T16:34:20;22.50;58.50
25438;DHT22;13364;49.084;9.978;2023-05-07T16:36:55;22.30;59.40
25438;DHT22;13364;49.084;9.978;2023-05-07T16:39:49;22.10;60.10
25438;DHT22;13364;49.084;9.978;2023-05-07T16:42:16;21.80;59.80
25438;DHT22;13364;49.084;9.978;2023-05-07T16:44:43;21.50;60.20
25438;DHT22;13364;49.084;9.978;2023-05-07T16:47:10;21.20;60.60
25438;DHT22;13364;49.084;9.978;2023-05-07T16:49:37;21.00;61.30
25438;DHT22;13364;49.084;9.978;2023-05-07T16:52:04;20.70;61.80